Time;durP1;ratioP1;P1;durP2;ratioP2;P2;SDS_P1;SDS_P2;PMS_P1;PMS_P2;Temp;Humidity;BMP_temperature;BMP_pressure;BME280_temperature;BME280_humidity;BME280_pressure;Samples;Min_cycle;Max_cycle;Signal;HPM_P1;HPM_P2
2024/01/27 00:01:49;;;;;;;8.57;5.43;;;;;3.10;100263.00;;;;5075155;28;20048;-66
2024/01/27 00:04:16;;;;;;;12.80;6.05;;;;;3.10;100263.00;;;;5073275;28;20139;-66
2024/01/27 00:06:43;;;;;;;8.95;5.63;;;;;3.10;100264.00;;;;5074774;28;20066;-66
2024/01/27 00:09:09;;;;;;;8.57;5.18;;;;;3.10;100269.00;;;;5074854;28;20041;-67
2024/01/27 00:11:39;;;;;;;8.82;5.20;;;;;3.00;100271.00;;;;5075248;28;20048;-67
2024/01/27 00:14:05;;;;;;;7.05;4.85;;;;;3.10;100273.00;;;;5077868;28;20049;-66
2024/01/27 00:16:32;;;;;;;9.75;5.28;;;;;3.10;100266.00;;;;5077081;28;20112;-67
2024/01/27 00:18:58;;;;;;;6.85;3.72;;;;;3.10;100278.00;;;;5079654;28;20387;-68
2024/01/27 00:21:25;;;;;;;7.20;3.90;;;;;3.00;100285.00;;;;5081887;28;20052;-67
2024/01/27 00:23:52;;;;;;;9.63;4.15;;;;;2.90;100271.00;;;;5085550;28;20127;-67
2024/01/27 00:26:18;;;;;;;5.95;3.88;;;;;2.80;100271.00;;;;5082314;28;20070;-67
2024/01/27 00:28:45;;;;;;;9.00;4.07;;;;;2.70;100270.00;;;;5076317;28;20041;-67
2024/01/27 00:31:11;;;;;;;6.70;4.53;;;;;2.70;100270.00;;;;5076735;28;20553;-67
2024/01/27 00:33:38;;;;;;;6.95;4.75;;;;;2.70;100264.00;;;;5077109;28;20052;-66
2024/01/27 00:36:05;;;;;;;12.70;4.25;;;;;2.60;100254.00;;;;5077249;28;20067;-66
2024/01/27 00:38:32;;;;;;;7.10;3.97;;;;;2.60;100262.00;;;;5082058;28;20561;-66
2024/01/27 00:40:58;;;;;;;7.95;4.20;;;;;2.60;100267.00;;;;5087379;28;20056;-66
2024/01/27 00:43:25;;;;;;;9.75;4.43;;;;;2.70;100262.00;;;;5085186;28;20074;-67
2024/01/27 00:45:52;;;;;;;5.90;3.33;;;;;2.70;100264.00;;;;5078265;28;20066;-67
2024/01/27 00:48:19;;;;;;;8.52;4.47;;;;;2.60;100270.00;;;;5077068;28;20683;-68
2024/01/27 00:50:46;;;;;;;11.77;4.75;;;;;2.60;100268.00;;;;5075431;28;20053;-68
2024/01/27 00:53:12;;;;;;;9.00;4.57;;;;;2.60;100266.00;;;;5061452;28;20513;-68
2024/01/27 00:55:39;;;;;;;8.00;4.55;;;;;2.60;100271.00;;;;5082047;28;20131;-68
2024/01/27 00:58:07;;;;;;;5.75;3.97;;;;;2.70;100268.00;;;;5083220;28;20501;-67
2024/01/27 01:00:33;;;;;;;6.57;3.78;;;;;2.60;100281.00;;;;5075285;28;20139;-67
2024/01/27 01:03:00;;;;;;;7.95;4.03;;;;;2.80;100279.00;;;;5083080;28;20116;-67
2024/01/27 01:05:27;;;;;;;10.27;4.45;;;;;2.70;100282.00;;;;5085374;28;20063;-68
2024/01/27 01:07:53;;;;;;;9.35;4.65;;;;;2.60;100280.00;;;;5076635;28;20421;-67
2024/01/27 01:10:20;;;;;;;7.68;4.65;;;;;2.50;100281.00;;;;5056377;28;20110;-66
2024/01/27 01:12:46;;;;;;;6.30;3.67;;;;;2.40;100281.00;;;;5072385;28;20052;-67
2024/01/27 01:15:13;;;;;;;8.65;4.28;;;;;2.40;100280.00;;;;5071930;28;20139;-67
2024/01/27 01:17:41;;;;;;;6.90;4.10;;;;;2.40;100276.00;;;;5073716;28;20045;-67
2024/01/27 01:20:08;;;;;;;5.53;3.55;;;;;2.40;100278.00;;;;5076102;28;20465;-68
2024/01/27 01:22:34;;;;;;;6.93;3.67;;;;;2.40;100277.00;;;;5073748;28;20063;-67
2024/01/27 01:25:01;;;;;;;5.50;4.28;;;;;2.30;100277.00;;;;5072326;28;20049;-67
2024/01/27 01:27:27;;;;;;;9.20;5.00;;;;;2.30;100282.00;;;;5073846;28;20123;-68
2024/01/27 01:29:54;;;;;;;7.78;4.65;;;;;2.30;100279.00;;;;5072592;28;20044;-68
2024/01/27 01:32:21;;;;;;;7.25;4.20;;;;;2.30;100288.00;;;;5073501;28;20048;-67
2024/01/27 01:34:48;;;;;;;8.68;4.03;;;;;2.40;100284.00;;;;5072156;28;20051;-68
2024/01/27 01:37:14;;;;;;;7.47;3.45;;;;;2.40;100287.00;;;;5074711;28;20043;-68
2024/01/27 01:39:41;;;;;;;8.32;3.78;;;;;2.50;100290.00;;;;5073513;28;20040;-68
2024/01/27 01:42:07;;;;;;;7.50;3.95;;;;;2.60;100294.00;;;;5074214;28;20481;-68
2024/01/27 01:44:34;;;;;;;9.60;4.15;;;;;2.50;100294.00;;;;5073764;28;20048;-68
2024/01/27 01:47:01;;;;;;;5.70;3.80;;;;;2.40;100303.00;;;;5074544;28;20044;-68
2024/01/27 01:49:27;;;;;;;4.85;3.13;;;;;2.40;100309.00;;;;5073985;28;20068;-68
2024/01/27 01:51:54;;;;;;;9.30;3.92;;;;;2.40;100313.00;;;;5074041;28;20044;-68
2024/01/27 01:54:22;;;;;;;7.57;3.83;;;;;2.30;100323.00;;;;5072346;28;20048;-68
2024/01/27 01:56:49;;;;;;;6.53;3.65;;;;;2.30;100335.00;;;;5072776;28;20052;-67
2024/01/27 01:59:16;;;;;;;7.10;3.83;;;;;2.40;100320.00;;;;5074504;28;20036;-67
2024/01/27 02:01:42;;;;;;;9.25;3.65;;;;;2.40;100320.00;;;;5073470;28;20066;-67
2024/01/27 02:04:12;;;;;;;6.30;4.05;;;;;2.30;100318.00;;;;5071968;28;20050;-66
2024/01/27 02:06:38;;;;;;;8.82;4.13;;;;;2.40;100330.00;;;;5071495;28;20044;-66
2024/01/27 02:09:05;;;;;;;6.28;3.30;;;;;2.50;100316.00;;;;5071301;28;20044;-66
2024/01/27 02:11:32;;;;;;;7.55;3.20;;;;;2.60;100317.00;;;;5072903;28;20395;-67
2024/01/27 02:13:58;;;;;;;8.38;3.22;;;;;2.60;100316.00;;;;5072067;28;20040;-67
2024/01/27 02:16:25;;;;;;;8.30;3.58;;;;;2.50;100311.00;;;;5072578;28;20052;-67
2024/01/27 02:18:51;;;;;;;8.13;3.40;;;;;2.30;100316.00;;;;5054636;28;20051;-66
2024/01/27 02:21:18;;;;;;;5.72;3.25;;;;;2.10;100309.00;;;;5072397;28;20532;-67
2024/01/27 02:23:44;;;;;;;6.22;3.40;;;;;2.00;100311.00;;;;5070687;28;20055;-66
2024/01/27 02:26:11;;;;;;;8.73;3.60;;;;;2.10;100317.00;;;;5072497;28;20382;-66
2024/01/27 02:28:38;;;;;;;6.55;3.33;;;;;2.00;100324.00;;;;5054786;28;20052;-67
2024/01/27 02:31:04;;;;;;;5.80;3.45;;;;;1.90;100338.00;;;;5072298;28;20452;-67
2024/01/27 02:33:31;;;;;;;4.85;3.42;;;;;1.90;100322.00;;;;5071859;28;20121;-66
2024/01/27 02:35:58;;;;;;;5.95;3.20;;;;;1.90;100335.00;;;;5072556;28;20052;-66
2024/01/27 02:38:24;;;;;;;3.35;3.05;;;;;1.90;100338.00;;;;5071097;28;20048;-66
2024/01/27 02:40:51;;;;;;;5.25;3.20;;;;;2.00;100335.00;;;;5072456;28;20068;-66
2024/01/27 02:43:17;;;;;;;4.18;2.95;;;;;2.10;100330.00;;;;5071086;28;20047;-66
2024/01/27 02:45:44;;;;;;;8.60;3.45;;;;;2.00;100333.00;;;;5071788;28;20051;-66
2024/01/27 02:48:13;;;;;;;7.82;3.50;;;;;2.10;100333.00;;;;5072272;28;20109;-66
2024/01/27 02:50:40;;;;;;;7.47;3.22;;;;;2.20;100345.00;;;;5072270;28;20506;-67
2024/01/27 02:53:07;;;;;;;7.70;3.50;;;;;2.30;100343.00;;;;5070952;28;20111;-66
2024/01/27 02:55:33;;;;;;;6.30;3.55;;;;;2.30;100338.00;;;;5071797;28;20045;-66
2024/01/27 02:58:00;;;;;;;9.27;3.88;;;;;2.30;100348.00;;;;5071974;28;20144;-66
2024/01/27 03:00:26;;;;;;;8.52;3.20;;;;;2.30;100341.00;;;;5072082;28;20044;-66
2024/01/27 03:02:54;;;;;;;7.68;3.42;;;;;2.30;100337.00;;;;5070897;28;20170;-67
2024/01/27 03:05:20;;;;;;;4.30;3.03;;;;;2.30;100342.00;;;;5071620;28;20127;-67
2024/01/27 03:07:47;;;;;;;9.05;4.13;;;;;2.20;100345.00;;;;5072084;28;20045;-66
2024/01/27 03:10:13;;;;;;;8.32;3.45;;;;;2.10;100340.00;;;;5070661;28;20044;-66
2024/01/27 03:12:40;;;;;;;9.05;3.88;;;;;2.10;100345.00;;;;5070598;28;20063;-67
2024/01/27 03:15:07;;;;;;;5.10;3.20;;;;;2.00;100346.00;;;;5075478;28;20040;-67
2024/01/27 03:17:34;;;;;;;3.95;3.10;;;;;2.00;100348.00;;;;5075953;28;20477;-66
2024/01/27 03:20:01;;;;;;;4.68;2.90;;;;;1.90;100347.00;;;;5075790;28;20060;-66
2024/01/27 03:22:27;;;;;;;6.15;3.47;;;;;1.80;100350.00;;;;5075980;28;20579;-66
2024/01/27 03:24:55;;;;;;;5.72;3.17;;;;;1.70;100350.00;;;;5075089;28;20507;-66
2024/01/27 03:27:21;;;;;;;4.10;2.90;;;;;1.60;100348.00;;;;5075744;28;20040;-66
2024/01/27 03:29:48;;;;;;;5.45;3.38;;;;;1.50;100351.00;;;;5076726;28;20044;-66
2024/01/27 03:32:15;;;;;;;6.30;2.92;;;;;1.40;100344.00;;;;5075179;28;20059;-67
2024/01/27 03:34:45;;;;;;;4.72;2.78;;;;;1.40;100344.00;;;;5075983;28;20066;-66
2024/01/27 03:37:11;;;;;;;5.85;2.85;;;;;1.30;100352.00;;;;5058045;28;20118;-67
2024/01/27 03:39:41;;;;;;;4.35;2.55;;;;;1.40;100344.00;;;;5075586;28;20047;-66
2024/01/27 03:42:08;;;;;;;5.68;2.65;;;;;1.40;100348.00;;;;5074005;28;20135;-67
2024/01/27 03:44:34;;;;;;;5.55;3.25;;;;;1.30;100351.00;;;;5074830;28;20096;-67
2024/01/27 03:47:01;;;;;;;4.80;2.60;;;;;1.30;100343.00;;;;5073990;28;20147;-66
2024/01/27 03:49:27;;;;;;;5.50;3.08;;;;;1.10;100350.00;;;;5075295;28;20409;-66
2024/01/27 03:51:54;;;;;;;9.95;2.88;;;;;1.10;100358.00;;;;5075284;28;20041;-67
2024/01/27 03:54:21;;;;;;;5.55;2.60;;;;;1.10;100364.00;;;;5074561;28;20064;-67
2024/01/27 03:56:47;;;;;;;3.90;2.53;;;;;1.10;100357.00;;;;5075094;28;20460;-66
2024/01/27 03:59:14;;;;;;;7.68;2.75;;;;;1.10;100360.00;;;;5075092;28;20512;-66
2024/01/27 04:01:40;;;;;;;6.32;2.63;;;;;1.00;100358.00;;;;5073930;28;20058;-67
2024/01/27 04:04:07;;;;;;;8.82;2.78;;;;;1.00;100353.00;;;;5074658;28;20044;-68
2024/01/27 04:06:38;;;;;;;3.30;2.88;;;;;0.90;100366.00;;;;5073878;28;20066;-67
2024/01/27 04:09:08;;;;;;;4.03;3.03;;;;;1.00;100362.00;;;;5075005;28;20040;-68
2024/01/27 04:11:36;;;;;;;3.83;2.42;;;;;1.10;100370.00;;;;5073827;28;20049;-68
2024/01/27 04:14:04;;;;;;;5.43;2.60;;;;;1.10;100368.00;;;;5073146;28;20049;-68
2024/01/27 04:16:31;;;;;;;6.70;3.03;;;;;1.00;100373.00;;;;5073770;28;20041;-68
2024/01/27 04:18:58;;;;;;;7.50;3.05;;;;;0.90;100375.00;;;;5075007;28;20401;-68
2024/01/27 04:21:24;;;;;;;6.30;3.22;;;;;0.90;100377.00;;;;5073567;28;20044;-68
2024/01/27 04:23:51;;;;;;;5.07;2.60;;;;;0.90;100370.00;;;;5073690;28;20076;-67
2024/01/27 04:26:18;;;;;;;4.32;2.90;;;;;0.80;100372.00;;;;5075050;28;20079;-68
2024/01/27 04:28:45;;;;;;;4.57;2.60;;;;;0.80;100375.00;;;;5075115;28;20045;-67
2024/01/27 04:31:11;;;;;;;7.45;2.78;;;;;0.80;100374.00;;;;5057245;28;20058;-68
2024/01/27 04:33:39;;;;;;;6.05;2.53;;;;;0.80;100369.00;;;;5073141;28;20048;-68
2024/01/27 04:36:06;;;;;;;4.63;2.40;;;;;0.80;100365.00;;;;5074681;28;20045;-67
2024/01/27 04:38:36;;;;;;;4.57;2.50;;;;;0.80;100362.00;;;;5073602;28;20045;-68
2024/01/27 04:41:03;;;;;;;4.20;2.30;;;;;1.00;100365.00;;;;5073167;28;20052;-68
2024/01/27 04:43:29;;;;;;;5.00;2.13;;;;;1.20;100368.00;;;;5074157;28;20055;-68
2024/01/27 04:45:56;;;;;;;7.55;2.40;;;;;1.20;100364.00;;;;5074480;28;20135;-68
2024/01/27 04:48:22;;;;;;;8.90;2.75;;;;;1.00;100366.00;;;;5073244;28;20051;-67
2024/01/27 04:50:50;;;;;;;5.07;2.40;;;;;0.90;100364.00;;;;5073030;28;20045;-68
2024/01/27 04:53:17;;;;;;;9.25;2.80;;;;;0.80;100375.00;;;;5073076;28;20481;-68
2024/01/27 04:55:43;;;;;;;4.28;2.33;;;;;0.90;100378.00;;;;5073713;28;20052;-68
2024/01/27 04:58:10;;;;;;;7.38;2.50;;;;;0.90;100379.00;;;;5073296;28;20044;-68
2024/01/27 05:00:36;;;;;;;6.07;2.50;;;;;0.90;100375.00;;;;5073043;28;20037;-68
2024/01/27 05:03:04;;;;;;;3.47;2.75;;;;;0.90;100367.00;;;;5073464;28;20413;-68
2024/01/27 05:05:32;;;;;;;6.82;3.08;;;;;0.80;100364.00;;;;5072272;28;20056;-68
2024/01/27 05:08:02;;;;;;;6.78;2.80;;;;;0.80;100367.00;;;;5073369;28;20123;-68
2024/01/27 05:10:29;;;;;;;10.07;3.55;;;;;0.80;100366.00;;;;5072678;28;20511;-67
2024/01/27 05:12:56;;;;;;;5.55;2.78;;;;;0.70;100372.00;;;;5072839;28;20066;-68
2024/01/27 05:15:22;;;;;;;5.25;2.60;;;;;0.80;100357.00;;;;5055435;28;20052;-68
2024/01/27 05:17:49;;;;;;;8.65;2.72;;;;;0.80;100364.00;;;;5072543;28;20044;-68
2024/01/27 05:20:17;;;;;;;8.95;3.00;;;;;0.80;100346.00;;;;5072610;28;20131;-67
2024/01/27 05:22:46;;;;;;;8.43;3.28;;;;;0.90;100362.00;;;;5073807;28;20046;-68
2024/01/27 05:25:13;;;;;;;9.13;3.05;;;;;1.00;100362.00;;;;5073050;28;20113;-68
2024/01/27 05:27:40;;;;;;;5.35;2.80;;;;;0.90;100362.00;;;;5073646;28;20098;-67
2024/01/27 05:30:07;;;;;;;4.25;2.90;;;;;0.70;100365.00;;;;5072337;28;20524;-68
2024/01/27 05:32:34;;;;;;;7.90;3.33;;;;;0.70;100362.00;;;;5072320;28;20113;-67
2024/01/27 05:35:01;;;;;;;8.52;2.85;;;;;0.70;100367.00;;;;5073127;28;20589;-68
2024/01/27 05:37:27;;;;;;;9.77;3.17;;;;;0.70;100367.00;;;;5071586;28;20040;-68
2024/01/27 05:39:54;;;;;;;9.80;4.00;;;;;0.60;100372.00;;;;5072862;28;20123;-67
2024/01/27 05:42:21;;;;;;;5.47;2.33;;;;;0.60;100370.00;;;;5074587;28;20059;-67
2024/01/27 05:44:48;;;;;;;6.47;2.70;;;;;0.60;100368.00;;;;5071855;28;20044;-67
2024/01/27 05:47:14;;;;;;;6.32;3.53;;;;;0.60;100373.00;;;;5055770;28;20056;-68
2024/01/27 05:49:41;;;;;;;5.70;3.30;;;;;0.60;100382.00;;;;5072109;28;20127;-67
2024/01/27 05:52:08;;;;;;;5.70;2.63;;;;;0.70;100384.00;;;;5073393;28;20060;-67
2024/01/27 05:54:34;;;;;;;7.10;3.22;;;;;0.80;100384.00;;;;5072494;28;20059;-68
2024/01/27 05:57:03;;;;;;;7.82;4.50;;;;;0.80;100397.00;;;;5055700;28;20417;-68
2024/01/27 05:59:29;;;;;;;7.90;2.50;;;;;0.80;100385.00;;;;5072804;28;20036;-67
2024/01/27 06:01:57;;;;;;;7.10;2.70;;;;;0.70;100374.00;;;;5071795;28;20048;-68
2024/01/27 06:04:24;;;;;;;6.90;2.72;;;;;0.50;100380.00;;;;5071303;28;20051;-67
2024/01/27 06:06:50;;;;;;;8.40;2.65;;;;;0.50;100388.00;;;;5071974;28;20060;-67
2024/01/27 06:09:17;;;;;;;6.22;2.60;;;;;0.50;100394.00;;;;5072859;28;20036;-67
2024/01/27 06:11:44;;;;;;;7.53;2.58;;;;;0.60;100398.00;;;;5071760;28;20044;-67
2024/01/27 06:14:10;;;;;;;8.43;2.85;;;;;0.60;100396.00;;;;5072111;28;20497;-67
2024/01/27 06:16:37;;;;;;;8.60;2.95;;;;;0.60;100397.00;;;;5071759;28;20040;-68
2024/01/27 06:19:03;;;;;;;8.30;3.42;;;;;0.60;100396.00;;;;5073136;28;20044;-67
2024/01/27 06:21:30;;;;;;;8.15;2.80;;;;;0.70;100394.00;;;;5072948;28;20574;-67
2024/01/27 06:23:57;;;;;;;7.70;2.60;;;;;0.70;100397.00;;;;5070843;28;20048;-67
2024/01/27 06:26:24;;;;;;;7.35;3.60;;;;;0.70;100395.00;;;;5072489;28;20068;-67
2024/01/27 06:28:50;;;;;;;15.57;3.33;;;;;0.80;100396.00;;;;5072545;28;20043;-67
2024/01/27 06:31:17;;;;;;;8.70;3.30;;;;;0.90;100396.00;;;;5071315;28;20052;-67
2024/01/27 06:33:44;;;;;;;7.82;3.30;;;;;0.90;100409.00;;;;5070636;28;20106;-67
2024/01/27 06:36:10;;;;;;;5.60;2.85;;;;;1.00;100401.00;;;;5072865;28;20040;-68
2024/01/27 06:38:37;;;;;;;8.30;3.70;;;;;0.90;100393.00;;;;5072608;28;20036;-68
2024/01/27 06:41:04;;;;;;;9.27;3.03;;;;;0.90;100388.00;;;;5072301;28;20040;-67
2024/01/27 06:43:30;;;;;;;7.38;3.28;;;;;0.90;100399.00;;;;5070374;28;20484;-66
2024/01/27 06:45:57;;;;;;;4.65;3.20;;;;;0.80;100402.00;;;;5072618;28;20087;-66
2024/01/27 06:48:27;;;;;;;5.25;3.42;;;;;0.80;100398.00;;;;5070290;28;20143;-67
2024/01/27 06:50:54;;;;;;;7.10;3.85;;;;;0.80;100398.00;;;;5072317;28;20041;-67
2024/01/27 06:53:21;;;;;;;7.25;3.28;;;;;0.90;100405.00;;;;5071047;28;20044;-67
2024/01/27 06:55:47;;;;;;;21.65;15.73;;;;;0.80;100395.00;;;;5071994;28;20041;-67
2024/01/27 06:58:14;;;;;;;99.15;58.67;;;;;0.60;100389.00;;;;5054403;28;20139;-67
2024/01/27 07:00:40;;;;;;;44.55;25.77;;;;;0.50;100391.00;;;;5072366;28;20071;-66
2024/01/27 07:03:08;;;;;;;187.82;116.70;;;;;0.50;100387.00;;;;5072179;28;20040;-66
2024/01/27 07:05:40;;;;;;;101.78;63.90;;;;;0.60;100409.00;;;;5071475;28;20037;-66
2024/01/27 07:08:07;;;;;;;62.53;36.80;;;;;0.70;100406.00;;;;5054329;28;20098;-66
2024/01/27 07:10:35;;;;;;;12.50;5.93;;;;;0.70;100410.00;;;;5070778;28;20140;-66
2024/01/27 07:13:02;;;;;;;10.18;5.55;;;;;0.60;100402.00;;;;5071139;28;20102;-66
2024/01/27 07:15:28;;;;;;;12.85;5.05;;;;;0.40;100395.00;;;;5072257;28;20072;-66
2024/01/27 07:17:55;;;;;;;7.88;4.93;;;;;0.40;100396.00;;;;5071080;28;20047;-66
2024/01/27 07:20:24;;;;;;;9.40;4.97;;;;;0.60;100397.00;;;;5072033;28;20094;-66
2024/01/27 07:22:51;;;;;;;9.30;4.55;;;;;0.70;100403.00;;;;5054029;28;20066;-66
2024/01/27 07:25:17;;;;;;;7.80;4.32;;;;;0.70;100402.00;;;;5071106;28;20045;-66
2024/01/27 07:27:44;;;;;;;5.80;3.50;;;;;0.70;100395.00;;;;5071766;28;20040;-67
2024/01/27 07:30:11;;;;;;;7.43;3.97;;;;;0.70;100395.00;;;;5071845;28;20036;-67
2024/01/27 07:32:38;;;;;;;7.68;3.97;;;;;0.70;100403.00;;;;5070360;28;20057;-67
2024/01/27 07:35:05;;;;;;;7.03;3.47;;;;;0.90;100413.00;;;;5071393;28;20052;-67
2024/01/27 07:37:32;;;;;;;7.15;3.60;;;;;1.00;100419.00;;;;5071740;28;20040;-67
2024/01/27 07:39:59;;;;;;;6.40;3.78;;;;;1.10;100422.00;;;;5071645;28;20040;-67
2024/01/27 07:42:25;;;;;;;4.55;3.17;;;;;1.10;100421.00;;;;5070460;28;20470;-67
2024/01/27 07:44:53;;;;;;;6.88;3.83;;;;;1.10;100404.00;;;;5071346;28;20091;-66
2024/01/27 07:47:19;;;;;;;8.88;3.90;;;;;1.00;100401.00;;;;5070593;28;20421;-68
2024/01/27 07:49:46;;;;;;;11.43;7.18;;;;;1.00;100395.00;;;;5072051;28;20055;-67
2024/01/27 07:52:13;;;;;;;13.98;9.70;;;;;1.10;100407.00;;;;5071115;28;20079;-68
2024/01/27 07:54:40;;;;;;;11.98;8.38;;;;;1.10;100396.00;;;;5071681;28;20044;-67
2024/01/27 07:57:07;;;;;;;10.32;5.55;;;;;1.20;100401.00;;;;5070166;28;20049;-68
2024/01/27 07:59:33;;;;;;;11.48;4.03;;;;;1.40;100416.00;;;;5072999;28;20098;-68
2024/01/27 08:02:00;;;;;;;5.97;4.00;;;;;1.60;100418.00;;;;5075186;28;20044;-68
2024/01/27 08:04:27;;;;;;;7.05;3.97;;;;;1.60;100408.00;;;;5074592;28;20046;-68
2024/01/27 08:06:54;;;;;;;6.45;3.75;;;;;1.70;100425.00;;;;5075207;28;20036;-66
2024/01/27 08:09:20;;;;;;;6.18;3.70;;;;;1.70;100417.00;;;;5057559;28;20401;-66
2024/01/27 08:11:51;;;;;;;8.93;4.20;;;;;1.80;100409.00;;;;5074860;28;20490;-66
2024/01/27 08:14:19;;;;;;;9.40;4.55;;;;;1.80;100415.00;;;;5074461;28;20055;-66
2024/01/27 08:16:46;;;;;;;6.05;4.38;;;;;1.80;100422.00;;;;5073743;28;20075;-66
2024/01/27 08:19:19;;;;;;;114.78;56.22;;;;;1.80;100424.00;;;;5074682;28;20037;-65
2024/01/27 08:21:47;;;;;;;50.65;26.75;;;;;1.90;100432.00;;;;5073437;28;20048;-65
2024/01/27 08:24:14;;;;;;;44.88;25.90;;;;;1.90;100440.00;;;;5074988;28;20058;-65
2024/01/27 08:26:42;;;;;;;34.50;20.05;;;;;1.80;100430.00;;;;5073496;28;20040;-65
2024/01/27 08:29:09;;;;;;;20.98;10.57;;;;;1.90;100436.00;;;;5074568;28;20049;-65
2024/01/27 08:31:37;;;;;;;9.98;5.88;;;;;2.10;100429.00;;;;5073151;28;20044;-66
2024/01/27 08:34:04;;;;;;;9.35;5.50;;;;;2.30;100431.00;;;;5073973;28;20551;-65
2024/01/27 08:36:33;;;;;;;9.52;5.18;;;;;2.40;100444.00;;;;5074711;28;20458;-66
2024/01/27 08:39:01;;;;;;;9.52;4.90;;;;;2.50;100444.00;;;;5073223;28;20440;-66
2024/01/27 08:41:27;;;;;;;13.63;5.15;;;;;2.60;100444.00;;;;5073280;28;20119;-66
2024/01/27 08:43:55;;;;;;;8.90;5.20;;;;;2.70;100440.00;;;;5073735;28;20121;-66
2024/01/27 08:46:22;;;;;;;13.73;6.30;;;;;2.80;100431.00;;;;5073315;28;20454;-66
2024/01/27 08:48:48;;;;;;;12.48;7.30;;;;;2.80;100429.00;;;;5073168;28;20489;-66
2024/01/27 08:51:16;;;;;;;14.57;7.88;;;;;2.80;100439.00;;;;5074150;28;20046;-66
2024/01/27 08:53:48;;;;;;;14.52;7.75;;;;;2.90;100442.00;;;;5073605;28;20048;-66
2024/01/27 08:56:17;;;;;;;15.15;5.72;;;;;3.00;100448.00;;;;5074024;28;20490;-66
2024/01/27 08:58:44;;;;;;;13.85;5.90;;;;;3.10;100447.00;;;;5072813;28;20055;-67
2024/01/27 09:01:12;;;;;;;10.02;5.35;;;;;3.10;100440.00;;;;5074005;28;20367;-67
2024/01/27 09:03:42;;;;;;;9.70;4.57;;;;;3.20;100452.00;;;;5073963;28;20071;-67
2024/01/27 09:06:09;;;;;;;20.25;10.07;;;;;3.20;100454.00;;;;5077134;28;20091;-67
2024/01/27 09:08:36;;;;;;;15.35;7.55;;;;;3.30;100444.00;;;;5074379;28;20049;-67
2024/01/27 09:11:03;;;;;;;14.98;8.15;;;;;3.40;100440.00;;;;5072785;28;20466;-67
2024/01/27 09:13:30;;;;;;;15.57;7.65;;;;;3.50;100444.00;;;;5073259;28;20521;-67
2024/01/27 09:15:58;;;;;;;13.18;6.60;;;;;3.60;100437.00;;;;5073890;28;20051;-67
2024/01/27 09:18:25;;;;;;;9.13;6.03;;;;;3.70;100448.00;;;;5073950;28;20124;-66
2024/01/27 09:20:54;;;;;;;13.55;6.35;;;;;3.70;100433.00;;;;5073729;28;20043;-66
2024/01/27 09:23:20;;;;;;;14.82;6.72;;;;;3.80;100426.00;;;;5072836;28;20460;-66
2024/01/27 09:25:47;;;;;;;12.57;7.28;;;;;3.90;100431.00;;;;5072388;28;20503;-67
2024/01/27 09:28:14;;;;;;;13.05;7.40;;;;;4.00;100425.00;;;;5072401;28;20060;-68
2024/01/27 09:30:41;;;;;;;9.68;6.32;;;;;4.00;100431.00;;;;5073691;28;20585;-67
2024/01/27 09:33:07;;;;;;;11.18;6.15;;;;;4.10;100429.00;;;;5081897;28;20053;-66
2024/01/27 09:35:34;;;;;;;11.50;6.70;;;;;4.20;100424.00;;;;5061763;28;20053;-66
2024/01/27 09:38:01;;;;;;;9.57;6.03;;;;;4.20;100431.00;;;;5073639;28;20146;-66
2024/01/27 09:40:28;;;;;;;12.20;5.57;;;;;4.20;100428.00;;;;5086995;28;20139;-67
2024/01/27 09:42:59;;;;;;;12.18;6.20;;;;;4.50;100424.00;;;;5087693;28;20064;-66
2024/01/27 09:45:26;;;;;;;11.25;5.82;;;;;4.60;100428.00;;;;5088596;28;20071;-66
2024/01/27 09:47:56;;;;;;;12.75;5.82;;;;;4.70;100432.00;;;;5076564;28;20052;-67
2024/01/27 09:50:23;;;;;;;8.55;4.95;;;;;4.80;100437.00;;;;5075023;28;20048;-66
2024/01/27 09:52:49;;;;;;;11.23;5.60;;;;;4.80;100434.00;;;;5088373;28;20075;-66
2024/01/27 09:55:16;;;;;;;11.68;5.35;;;;;5.00;100441.00;;;;5087024;28;20056;-66
2024/01/27 09:57:44;;;;;;;12.82;4.90;;;;;5.10;100436.00;;;;5088070;28;20138;-66
2024/01/27 10:00:11;;;;;;;9.98;4.53;;;;;5.10;100448.00;;;;5080670;28;20481;-67
2024/01/27 10:02:42;;;;;;;12.23;5.88;;;;;5.20;100435.00;;;;5059489;28;20045;-66
2024/01/27 10:05:09;;;;;;;11.73;5.35;;;;;5.30;100431.00;;;;5079894;28;20049;-66
2024/01/27 10:07:36;;;;;;;11.43;5.05;;;;;5.30;100431.00;;;;5076041;28;20397;-66
2024/01/27 10:10:03;;;;;;;14.40;6.55;;;;;5.20;100443.00;;;;5073531;28;20359;-66
2024/01/27 10:12:32;;;;;;;10.98;5.10;;;;;5.20;100441.00;;;;5073135;28;20469;-67
2024/01/27 10:14:59;;;;;;;9.43;5.57;;;;;5.30;100440.00;;;;5073226;28;20098;-66
2024/01/27 10:17:29;;;;;;;11.63;5.13;;;;;5.50;100430.00;;;;5077794;28;20068;-67
2024/01/27 10:20:03;;;;;;;10.27;4.95;;;;;5.60;100453.00;;;;5071300;28;20106;-66
2024/01/27 10:22:40;;;;;;;9.98;5.55;;;;;5.70;100445.00;;;;5071165;28;20456;-67
2024/01/27 10:25:09;;;;;;;13.70;5.68;;;;;5.70;100447.00;;;;5071984;28;20044;-67
2024/01/27 10:27:36;;;;;;;10.45;5.25;;;;;5.80;100441.00;;;;5071114;28;20058;-67
2024/01/27 10:30:03;;;;;;;10.30;5.40;;;;;5.70;100438.00;;;;5072543;28;20040;-67
2024/01/27 10:32:30;;;;;;;13.10;6.85;;;;;5.60;100440.00;;;;5071190;28;20413;-67
2024/01/27 10:35:10;;;;;;;13.43;5.82;;;;;5.70;100439.00;;;;5070684;28;20045;-66
2024/01/27 10:37:37;;;;;;;11.65;4.53;;;;;5.90;100442.00;;;;5071301;28;20040;-66
2024/01/27 10:40:07;;;;;;;13.63;5.85;;;;;5.90;100435.00;;;;5072317;28;20044;-68
2024/01/27 10:42:35;;;;;;;12.00;5.45;;;;;5.90;100427.00;;;;5072415;28;20036;-67
2024/01/27 10:45:02;;;;;;;10.02;5.20;;;;;6.10;100444.00;;;;5071624;28;20082;-66
2024/01/27 10:47:31;;;;;;;9.98;5.93;;;;;6.10;100441.00;;;;5070928;28;20079;-66
2024/01/27 10:49:59;;;;;;;14.77;5.50;;;;;6.20;100441.00;;;;5071057;28;20067;-66
2024/01/27 10:52:30;;;;;;;14.27;6.95;;;;;6.40;100438.00;;;;5070980;28;20045;-66
2024/01/27 10:55:06;;;;;;;10.45;6.05;;;;;6.50;100443.00;;;;5070447;28;20102;-67
2024/01/27 10:57:34;;;;;;;11.90;5.85;;;;;6.70;100441.00;;;;5071037;28;20123;-66
2024/01/27 11:00:05;;;;;;;11.55;5.90;;;;;6.80;100427.00;;;;5072363;28;20120;-67
2024/01/27 11:02:34;;;;;;;15.10;5.72;;;;;6.80;100426.00;;;;5072296;28;20048;-67
2024/01/27 11:05:03;;;;;;;15.70;6.13;;;;;6.80;100432.00;;;;5071630;28;20468;-68
2024/01/27 11:07:33;;;;;;;16.95;7.60;;;;;6.90;100440.00;;;;5070999;28;20401;-67
2024/01/27 11:10:00;;;;;;;12.13;6.22;;;;;6.80;100436.00;;;;5072006;28;20112;-67
2024/01/27 11:12:27;;;;;;;16.55;8.77;;;;;6.70;100434.00;;;;5072048;28;20086;-67
2024/01/27 11:14:54;;;;;;;16.75;7.00;;;;;6.60;100413.00;;;;5071610;28;20044;-66
2024/01/27 11:17:21;;;;;;;13.23;7.20;;;;;6.60;100402.00;;;;5071000;28;20494;-67
2024/01/27 11:19:47;;;;;;;15.30;6.85;;;;;6.70;100394.00;;;;5071622;28;20043;-67
2024/01/27 11:22:28;;;;;;;12.40;6.47;;;;;6.80;100406.00;;;;5071754;28;20086;-67
2024/01/27 11:25:14;;;;;;;11.80;7.10;;;;;6.90;100406.00;;;;5071087;28;20049;-67
2024/01/27 11:27:43;;;;;;;12.20;6.65;;;;;7.20;100406.00;;;;5071710;28;20040;-67
2024/01/27 11:30:30;;;;;;;13.07;6.97;;;;;7.40;100399.00;;;;5071708;28;20516;-67
2024/01/27 11:32:57;;;;;;;14.60;7.50;;;;;7.50;100396.00;;;;5053922;28;20141;-67
2024/01/27 11:35:24;;;;;;;14.40;7.35;;;;;7.40;100398.00;;;;5072922;28;20044;-67
2024/01/27 11:37:52;;;;;;;15.20;7.53;;;;;7.70;100391.00;;;;5075953;28;20044;-67
2024/01/27 11:40:18;;;;;;;11.40;6.88;;;;;7.80;100388.00;;;;5074272;28;20044;-67
2024/01/27 11:42:59;;;;;;;14.07;7.32;;;;;7.80;100380.00;;;;5075584;28;20044;-67
2024/01/27 11:45:28;;;;;;;17.98;7.18;;;;;7.60;100384.00;;;;5074562;28;20055;-67
2024/01/27 11:47:56;;;;;;;17.05;7.68;;;;;7.60;100382.00;;;;5075353;28;20459;-67
2024/01/27 11:50:23;;;;;;;11.73;7.00;;;;;7.70;100382.00;;;;5074306;28;20079;-66
2024/01/27 11:52:50;;;;;;;12.82;6.65;;;;;7.80;100394.00;;;;5075655;28;20040;-66
2024/01/27 11:55:18;;;;;;;16.00;6.80;;;;;8.00;100385.00;;;;5073799;28;20094;-67
2024/01/27 11:57:45;;;;;;;12.27;6.30;;;;;8.10;100379.00;;;;5075395;28;20052;-66
2024/01/27 12:00:12;;;;;;;13.52;6.07;;;;;8.20;100386.00;;;;5074597;28;20064;-66
2024/01/27 12:02:39;;;;;;;13.75;6.70;;;;;8.40;100372.00;;;;5077008;28;20501;-67
2024/01/27 12:05:06;;;;;;;9.73;5.10;;;;;8.40;100381.00;;;;5077136;28;20078;-67
2024/01/27 12:07:33;;;;;;;10.15;4.85;;;;;8.50;100369.00;;;;5079194;28;20040;-67
2024/01/27 12:10:00;;;;;;;12.88;4.90;;;;;8.60;100377.00;;;;5077869;28;20062;-67
2024/01/27 12:12:27;;;;;;;12.90;5.03;;;;;8.70;100376.00;;;;5077457;28;20466;-67
2024/01/27 12:14:54;;;;;;;12.32;4.68;;;;;8.80;100366.00;;;;5075355;28;20094;-66